sensor_id;sensor_type;location;lat;lon;timestamp;P1;durP1;ratioP1;P2;durP2;ratioP2
78838;SDS011;68405;47.190;27.558;2023-04-03T00:02:22;4.80;;;3.40;;
78838;SDS011;68405;47.190;27.558;2023-04-03T00:04:53;5.60;;;4.10;;
78838;SDS011;68405;47.190;27.558;2023-04-03T00:07:25;5.60;;;3.90;;
78838;SDS011;68405;47.190;27.558;2023-04-03T00:09:57;5.00;;;4.00;;
78838;SDS011;68405;47.190;27.558;2023-04-03T00:12:29;5.30;;;4.00;;
78838;SDS011;68405;47.190;27.558;2023-04-03T00:15:00;4.90;;;4.10;;
78838;SDS011;68405;47.190;27.558;2023-04-03T00:17:32;5.70;;;4.40;;
78838;SDS011;68405;47.190;27.558;2023-04-03T00:20:05;7.00;;;4.90;;
78838;SDS011;68405;47.190;27.558;2023-04-03T00:22:37;5.90;;;4.80;;
78838;SDS011;68405;47.190;27.558;2023-04-03T00:25:09;6.10;;;4.40;;
78838;SDS011;68405;47.190;27.558;2023-04-03T00:27:41;5.00;;;3.80;;
78838;SDS011;68405;47.190;27.558;2023-04-03T00:30:14;6.30;;;4.80;;
78838;SDS011;68405;47.190;27.558;2023-04-03T00:32:49;6.90;;;4.80;;
78838;SDS011;68405;47.190;27.558;2023-04-03T00:35:22;6.00;;;3.90;;
78838;SDS011;68405;47.190;27.558;2023-04-03T00:37:54;7.10;;;4.70;;
78838;SDS011;68405;47.190;27.558;2023-04-03T00:40:26;5.70;;;3.70;;
78838;SDS011;68405;47.190;27.558;2023-04-03T00:43:05;4.50;;;3.90;;
78838;SDS011;68405;47.190;27.558;2023-04-03T00:45:45;6.00;;;4.00;;
78838;SDS011;68405;47.190;27.558;2023-04-03T00:48:18;6.00;;;4.20;;
78838;SDS011;68405;47.190;27.558;2023-04-03T00:50:54;5.40;;;4.20;;
78838;SDS011;68405;47.190;27.558;2023-04-03T00:53:27;5.10;;;3.70;;
78838;SDS011;68405;47.190;27.558;2023-04-03T00:56:03;5.90;;;4.30;;
78838;SDS011;68405;47.190;27.558;2023-04-03T00:58:39;6.50;;;4.70;;
78838;SDS011;68405;47.190;27.558;2023-04-03T01:01:15;5.70;;;4.40;;
78838;SDS011;68405;47.190;27.558;2023-04-03T01:03:51;7.10;;;4.80;;
78838;SDS011;68405;47.190;27.558;2023-04-03T01:06:24;5.50;;;4.30;;
78838;SDS011;68405;47.190;27.558;2023-04-03T01:09:01;4.00;;;3.10;;
78838;SDS011;68405;47.190;27.558;2023-04-03T01:11:33;5.10;;;3.80;;
78838;SDS011;68405;47.190;27.558;2023-04-03T01:14:05;4.60;;;3.40;;
78838;SDS011;68405;47.190;27.558;2023-04-03T01:16:37;5.00;;;3.50;;
78838;SDS011;68405;47.190;27.558;2023-04-03T01:19:10;5.00;;;3.60;;
78838;SDS011;68405;47.190;27.558;2023-04-03T01:22:03;4.80;;;4.00;;
78838;SDS011;68405;47.190;27.558;2023-04-03T01:24:46;5.00;;;3.90;;
78838;SDS011;68405;47.190;27.558;2023-04-03T01:27:19;5.20;;;3.60;;
78838;SDS011;68405;47.190;27.558;2023-04-03T01:29:51;6.20;;;4.60;;
78838;SDS011;68405;47.190;27.558;2023-04-03T01:32:23;6.40;;;4.60;;
78838;SDS011;68405;47.190;27.558;2023-04-03T01:34:55;6.90;;;4.80;;
78838;SDS011;68405;47.190;27.558;2023-04-03T01:37:27;7.00;;;4.60;;
78838;SDS011;68405;47.190;27.558;2023-04-03T01:39:59;6.30;;;4.50;;
78838;SDS011;68405;47.190;27.558;2023-04-03T01:42:31;7.40;;;4.70;;
78838;SDS011;68405;47.190;27.558;2023-04-03T01:45:03;5.60;;;3.20;;
78838;SDS011;68405;47.190;27.558;2023-04-03T01:47:35;5.20;;;3.60;;
78838;SDS011;68405;47.190;27.558;2023-04-03T01:50:08;4.40;;;3.80;;
78838;SDS011;68405;47.190;27.558;2023-04-03T01:52:39;5.40;;;3.90;;
78838;SDS011;68405;47.190;27.558;2023-04-03T01:55:11;5.10;;;4.00;;
78838;SDS011;68405;47.190;27.558;2023-04-03T01:57:43;5.50;;;4.20;;
78838;SDS011;68405;47.190;27.558;2023-04-03T02:00:15;5.80;;;4.30;;
78838;SDS011;68405;47.190;27.558;2023-04-03T02:02:48;5.50;;;3.40;;
78838;SDS011;68405;47.190;27.558;2023-04-03T02:05:19;5.30;;;3.70;;
78838;SDS011;68405;47.190;27.558;2023-04-03T02:07:51;6.00;;;4.30;;
78838;SDS011;68405;47.190;27.558;2023-04-03T02:10:23;5.20;;;3.70;;
78838;SDS011;68405;47.190;27.558;2023-04-03T02:12:55;6.20;;;4.40;;
78838;SDS011;68405;47.190;27.558;2023-04-03T02:15:26;5.80;;;5.00;;
78838;SDS011;68405;47.190;27.558;2023-04-03T02:17:58;5.30;;;3.90;;
78838;SDS011;68405;47.190;27.558;2023-04-03T02:20:30;7.00;;;4.50;;
78838;SDS011;68405;47.190;27.558;2023-04-03T02:23:02;6.30;;;4.50;;
78838;SDS011;68405;47.190;27.558;2023-04-03T02:25:34;5.00;;;3.40;;
78838;SDS011;68405;47.190;27.558;2023-04-03T02:28:06;6.70;;;4.40;;
78838;SDS011;68405;47.190;27.558;2023-04-03T02:30:38;5.80;;;4.20;;
78838;SDS011;68405;47.190;27.558;2023-04-03T02:33:10;5.90;;;4.20;;
78838;SDS011;68405;47.190;27.558;2023-04-03T02:35:41;7.00;;;4.50;;
78838;SDS011;68405;47.190;27.558;2023-04-03T02:38:22;6.10;;;4.70;;
78838;SDS011;68405;47.190;27.558;2023-04-03T02:40:57;4.90;;;3.80;;
78838;SDS011;68405;47.190;27.558;2023-04-03T02:43:32;3.60;;;2.80;;
78838;SDS011;68405;47.190;27.558;2023-04-03T02:46:04;5.30;;;3.40;;
78838;SDS011;68405;47.190;27.558;2023-04-03T02:48:36;5.50;;;3.60;;
78838;SDS011;68405;47.190;27.558;2023-04-03T02:51:08;4.00;;;3.10;;
78838;SDS011;68405;47.190;27.558;2023-04-03T02:53:40;5.20;;;3.60;;
78838;SDS011;68405;47.190;27.558;2023-04-03T02:56:12;4.70;;;3.00;;
78838;SDS011;68405;47.190;27.558;2023-04-03T02:58:45;5.10;;;3.60;;
78838;SDS011;68405;47.190;27.558;2023-04-03T03:01:17;5.10;;;3.40;;
78838;SDS011;68405;47.190;27.558;2023-04-03T03:03:48;4.50;;;3.20;;
78838;SDS011;68405;47.190;27.558;2023-04-03T03:06:20;4.60;;;3.90;;
78838;SDS011;68405;47.190;27.558;2023-04-03T03:08:52;5.00;;;3.60;;
78838;SDS011;68405;47.190;27.558;2023-04-03T03:11:25;5.90;;;3.50;;
78838;SDS011;68405;47.190;27.558;2023-04-03T03:13:57;4.20;;;3.50;;
78838;SDS011;68405;47.190;27.558;2023-04-03T03:16:29;8.50;;;4.40;;
78838;SDS011;68405;47.190;27.558;2023-04-03T03:19:01;4.50;;;3.00;;
78838;SDS011;68405;47.190;27.558;2023-04-03T03:21:32;7.30;;;4.30;;
78838;SDS011;68405;47.190;27.558;2023-04-03T03:24:05;5.10;;;3.60;;
78838;SDS011;68405;47.190;27.558;2023-04-03T03:26:37;6.90;;;4.50;;
78838;SDS011;68405;47.190;27.558;2023-04-03T03:29:09;11.60;;;7.40;;
78838;SDS011;68405;47.190;27.558;2023-04-03T03:31:41;11.50;;;7.00;;
78838;SDS011;68405;47.190;27.558;2023-04-03T03:34:13;11.00;;;7.30;;
78838;SDS011;68405;47.190;27.558;2023-04-03T03:36:45;11.60;;;7.00;;
78838;SDS011;68405;47.190;27.558;2023-04-03T03:39:17;13.90;;;8.40;;
78838;SDS011;68405;47.190;27.558;2023-04-03T03:41:48;14.90;;;9.60;;
78838;SDS011;68405;47.190;27.558;2023-04-03T03:44:21;13.70;;;9.20;;
78838;SDS011;68405;47.190;27.558;2023-04-03T03:46:53;14.90;;;9.10;;
78838;SDS011;68405;47.190;27.558;2023-04-03T03:49:26;14.80;;;9.80;;
78838;SDS011;68405;47.190;27.558;2023-04-03T03:51:57;19.00;;;11.90;;
78838;SDS011;68405;47.190;27.558;2023-04-03T03:54:29;17.60;;;10.70;;
78838;SDS011;68405;47.190;27.558;2023-04-03T03:57:01;22.90;;;13.00;;
78838;SDS011;68405;47.190;27.558;2023-04-03T03:59:33;18.10;;;11.60;;
78838;SDS011;68405;47.190;27.558;2023-04-03T04:02:05;19.00;;;11.70;;
78838;SDS011;68405;47.190;27.558;2023-04-03T04:04:37;18.80;;;11.60;;
78838;SDS011;68405;47.190;27.558;2023-04-03T04:07:09;19.70;;;11.90;;
78838;SDS011;68405;47.190;27.558;2023-04-03T04:09:41;21.00;;;12.60;;
78838;SDS011;68405;47.190;27.558;2023-04-03T04:12:13;20.70;;;10.80;;
78838;SDS011;68405;47.190;27.558;2023-04-03T04:14:45;18.00;;;11.20;;
78838;SDS011;68405;47.190;27.558;2023-04-03T04:17:17;17.90;;;11.40;;
78838;SDS011;68405;47.190;27.558;2023-04-03T04:19:49;19.20;;;11.40;;
78838;SDS011;68405;47.190;27.558;2023-04-03T04:22:22;14.20;;;9.60;;
78838;SDS011;68405;47.190;27.558;2023-04-03T04:24:54;17.90;;;11.60;;
78838;SDS011;68405;47.190;27.558;2023-04-03T04:27:27;16.90;;;9.60;;
78838;SDS011;68405;47.190;27.558;2023-04-03T04:29:59;11.80;;;8.10;;
78838;SDS011;68405;47.190;27.558;2023-04-03T04:32:31;14.20;;;9.20;;
78838;SDS011;68405;47.190;27.558;2023-04-03T04:35:03;13.00;;;8.10;;
78838;SDS011;68405;47.190;27.558;2023-04-03T04:37:36;12.40;;;8.40;;
78838;SDS011;68405;47.190;27.558;2023-04-03T04:40:09;14.10;;;9.00;;
78838;SDS011;68405;47.190;27.558;2023-04-03T04:42:41;14.80;;;9.80;;
78838;SDS011;68405;47.190;27.558;2023-04-03T04:45:13;10.50;;;7.00;;
78838;SDS011;68405;47.190;27.558;2023-04-03T04:47:45;12.60;;;7.70;;
78838;SDS011;68405;47.190;27.558;2023-04-03T04:50:18;12.90;;;8.00;;
78838;SDS011;68405;47.190;27.558;2023-04-03T04:52:50;10.30;;;6.40;;
78838;SDS011;68405;47.190;27.558;2023-04-03T04:55:22;8.70;;;4.90;;
78838;SDS011;68405;47.190;27.558;2023-04-03T04:57:54;11.50;;;8.50;;
78838;SDS011;68405;47.190;27.558;2023-04-03T05:00:26;12.90;;;7.30;;
78838;SDS011;68405;47.190;27.558;2023-04-03T05:02:58;11.90;;;7.40;;
78838;SDS011;68405;47.190;27.558;2023-04-03T05:05:31;13.20;;;8.60;;
78838;SDS011;68405;47.190;27.558;2023-04-03T05:08:03;13.00;;;8.00;;
78838;SDS011;68405;47.190;27.558;2023-04-03T05:10:36;11.50;;;6.60;;
78838;SDS011;68405;47.190;27.558;2023-04-03T05:13:09;12.80;;;7.30;;
78838;SDS011;68405;47.190;27.558;2023-04-03T05:15:40;11.50;;;7.30;;
78838;SDS011;68405;47.190;27.558;2023-04-03T05:18:12;11.50;;;6.60;;
78838;SDS011;68405;47.190;27.558;2023-04-03T05:20:44;7.90;;;5.10;;
78838;SDS011;68405;47.190;27.558;2023-04-03T05:23:17;14.30;;;8.00;;
78838;SDS011;68405;47.190;27.558;2023-04-03T05:25:49;11.70;;;7.80;;
78838;SDS011;68405;47.190;27.558;2023-04-03T05:28:22;14.80;;;9.00;;
78838;SDS011;68405;47.190;27.558;2023-04-03T05:30:54;12.00;;;6.90;;
78838;SDS011;68405;47.190;27.558;2023-04-03T05:33:27;15.00;;;9.00;;
78838;SDS011;68405;47.190;27.558;2023-04-03T05:36:01;13.10;;;9.00;;
78838;SDS011;68405;47.190;27.558;2023-04-03T05:38:34;16.00;;;10.10;;
78838;SDS011;68405;47.190;27.558;2023-04-03T05:41:06;14.10;;;8.90;;
78838;SDS011;68405;47.190;27.558;2023-04-03T05:43:39;11.10;;;7.60;;
78838;SDS011;68405;47.190;27.558;2023-04-03T05:46:11;11.60;;;7.80;;
78838;SDS011;68405;47.190;27.558;2023-04-03T05:48:44;13.30;;;8.50;;
78838;SDS011;68405;47.190;27.558;2023-04-03T05:51:17;11.20;;;7.80;;
78838;SDS011;68405;47.190;27.558;2023-04-03T05:53:51;16.20;;;8.90;;
78838;SDS011;68405;47.190;27.558;2023-04-03T05:56:27;12.50;;;8.30;;
78838;SDS011;68405;47.190;27.558;2023-04-03T05:58:59;15.00;;;8.80;;
78838;SDS011;68405;47.190;27.558;2023-04-03T06:01:31;13.30;;;9.10;;
78838;SDS011;68405;47.190;27.558;2023-04-03T06:04:03;11.90;;;7.40;;
78838;SDS011;68405;47.190;27.558;2023-04-03T06:06:47;11.30;;;7.50;;
78838;SDS011;68405;47.190;27.558;2023-04-03T06:09:22;9.80;;;6.50;;
78838;SDS011;68405;47.190;27.558;2023-04-03T06:11:55;6.80;;;5.20;;
78838;SDS011;68405;47.190;27.558;2023-04-03T06:14:27;8.50;;;5.80;;
78838;SDS011;68405;47.190;27.558;2023-04-03T06:16:59;7.10;;;4.70;;
78838;SDS011;68405;47.190;27.558;2023-04-03T06:19:31;5.80;;;3.80;;
78838;SDS011;68405;47.190;27.558;2023-04-03T06:22:03;6.60;;;4.70;;
78838;SDS011;68405;47.190;27.558;2023-04-03T06:24:35;7.00;;;4.60;;
78838;SDS011;68405;47.190;27.558;2023-04-03T06:27:08;5.40;;;3.50;;
78838;SDS011;68405;47.190;27.558;2023-04-03T06:29:41;6.20;;;4.50;;
78838;SDS011;68405;47.190;27.558;2023-04-03T06:32:13;4.30;;;3.60;;
78838;SDS011;68405;47.190;27.558;2023-04-03T06:34:45;4.00;;;3.30;;
78838;SDS011;68405;47.190;27.558;2023-04-03T06:37:18;4.90;;;3.50;;
78838;SDS011;68405;47.190;27.558;2023-04-03T06:39:51;6.20;;;3.70;;
78838;SDS011;68405;47.190;27.558;2023-04-03T06:42:23;5.20;;;4.50;;
78838;SDS011;68405;47.190;27.558;2023-04-03T06:44:55;4.70;;;3.80;;
78838;SDS011;68405;47.190;27.558;2023-04-03T06:47:28;5.20;;;3.40;;
78838;SDS011;68405;47.190;27.558;2023-04-03T06:50:00;5.40;;;3.10;;
78838;SDS011;68405;47.190;27.558;2023-04-03T06:52:33;2.50;;;2.30;;
78838;SDS011;68405;47.190;27.558;2023-04-03T06:55:05;3.80;;;2.60;;
78838;SDS011;68405;47.190;27.558;2023-04-03T06:57:38;3.70;;;2.60;;
78838;SDS011;68405;47.190;27.558;2023-04-03T07:00:11;4.30;;;2.60;;
78838;SDS011;68405;47.190;27.558;2023-04-03T07:02:45;4.90;;;3.50;;
78838;SDS011;68405;47.190;27.558;2023-04-03T07:05:17;4.50;;;2.90;;
78838;SDS011;68405;47.190;27.558;2023-04-03T07:07:49;3.00;;;2.20;;
78838;SDS011;68405;47.190;27.558;2023-04-03T07:10:21;3.40;;;2.10;;
78838;SDS011;68405;47.190;27.558;2023-04-03T07:12:53;5.00;;;3.00;;
78838;SDS011;68405;47.190;27.558;2023-04-03T07:15:25;2.60;;;2.30;;
78838;SDS011;68405;47.190;27.558;2023-04-03T07:17:58;3.70;;;2.60;;
78838;SDS011;68405;47.190;27.558;2023-04-03T07:20:30;4.00;;;2.90;;
78838;SDS011;68405;47.190;27.558;2023-04-03T07:23:03;4.30;;;2.10;;
78838;SDS011;68405;47.190;27.558;2023-04-03T07:25:35;4.30;;;3.10;;
78838;SDS011;68405;47.190;27.558;2023-04-03T07:28:10;4.30;;;3.20;;
78838;SDS011;68405;47.190;27.558;2023-04-03T07:30:46;4.40;;;3.30;;
78838;SDS011;68405;47.190;27.558;2023-04-03T07:33:20;4.50;;;2.90;;
78838;SDS011;68405;47.190;27.558;2023-04-03T07:35:53;5.70;;;2.70;;
78838;SDS011;68405;47.190;27.558;2023-04-03T07:38:25;3.40;;;2.70;;
78838;SDS011;68405;47.190;27.558;2023-04-03T07:40:57;3.40;;;2.50;;
78838;SDS011;68405;47.190;27.558;2023-04-03T07:43:29;3.00;;;2.30;;
78838;SDS011;68405;47.190;27.558;2023-04-03T07:46:04;4.20;;;2.30;;
78838;SDS011;68405;47.190;27.558;2023-04-03T07:48:37;3.60;;;2.80;;
78838;SDS011;68405;47.190;27.558;2023-04-03T07:51:09;3.40;;;2.60;;
78838;SDS011;68405;47.190;27.558;2023-04-03T07:53:41;4.40;;;3.40;;
78838;SDS011;68405;47.190;27.558;2023-04-03T07:56:13;3.90;;;2.90;;
78838;SDS011;68405;47.190;27.558;2023-04-03T07:58:46;3.10;;;2.10;;
78838;SDS011;68405;47.190;27.558;2023-04-03T08:01:18;3.60;;;2.80;;
78838;SDS011;68405;47.190;27.558;2023-04-03T08:03:50;4.30;;;2.80;;
78838;SDS011;68405;47.190;27.558;2023-04-03T08:06:23;3.00;;;2.70;;
78838;SDS011;68405;47.190;27.558;2023-04-03T08:08:55;4.70;;;2.50;;
78838;SDS011;68405;47.190;27.558;2023-04-03T08:11:27;3.80;;;2.20;;
78838;SDS011;68405;47.190;27.558;2023-04-03T08:13:59;3.10;;;2.60;;
78838;SDS011;68405;47.190;27.558;2023-04-03T08:16:31;3.20;;;2.40;;
78838;SDS011;68405;47.190;27.558;2023-04-03T08:19:04;3.10;;;2.00;;
78838;SDS011;68405;47.190;27.558;2023-04-03T08:21:36;2.90;;;2.10;;
78838;SDS011;68405;47.190;27.558;2023-04-03T08:24:09;2.50;;;1.90;;
78838;SDS011;68405;47.190;27.558;2023-04-03T08:26:41;2.90;;;1.90;;
78838;SDS011;68405;47.190;27.558;2023-04-03T08:29:13;2.30;;;2.00;;
78838;SDS011;68405;47.190;27.558;2023-04-03T08:31:45;1.90;;;1.60;;
78838;SDS011;68405;47.190;27.558;2023-04-03T08:34:18;1.80;;;1.40;;
78838;SDS011;68405;47.190;27.558;2023-04-03T08:36:51;2.00;;;1.70;;
78838;SDS011;68405;47.190;27.558;2023-04-03T08:39:23;1.80;;;1.50;;
78838;SDS011;68405;47.190;27.558;2023-04-03T08:41:55;2.50;;;1.70;;
78838;SDS011;68405;47.190;27.558;2023-04-03T08:44:39;1.90;;;1.50;;
78838;SDS011;68405;47.190;27.558;2023-04-03T08:47:23;2.60;;;1.80;;
78838;SDS011;68405;47.190;27.558;2023-04-03T08:50:00;2.00;;;1.80;;
78838;SDS011;68405;47.190;27.558;2023-04-03T08:52:36;4.80;;;2.00;;
78838;SDS011;68405;47.190;27.558;2023-04-03T08:55:16;2.00;;;1.80;;
78838;SDS011;68405;47.190;27.558;2023-04-03T08:57:57;2.80;;;1.60;;
78838;SDS011;68405;47.190;27.558;2023-04-03T09:00:36;2.40;;;2.10;;
78838;SDS011;68405;47.190;27.558;2023-04-03T09:03:14;2.20;;;2.00;;
78838;SDS011;68405;47.190;27.558;2023-04-03T09:05:49;2.30;;;2.00;;
78838;SDS011;68405;47.190;27.558;2023-04-03T09:08:25;4.10;;;2.60;;
78838;SDS011;68405;47.190;27.558;2023-04-03T09:11:04;2.60;;;2.20;;
78838;SDS011;68405;47.190;27.558;2023-04-03T09:13:48;1.70;;;1.30;;
78838;SDS011;68405;47.190;27.558;2023-04-03T09:16:38;1.90;;;1.60;;
78838;SDS011;68405;47.190;27.558;2023-04-03T09:19:21;2.50;;;2.30;;
78838;SDS011;68405;47.190;27.558;2023-04-03T09:22:09;5.10;;;1.80;;
78838;SDS011;68405;47.190;27.558;2023-04-03T09:24:49;2.10;;;1.90;;
78838;SDS011;68405;47.190;27.558;2023-04-03T09:27:26;1.70;;;1.60;;
78838;SDS011;68405;47.190;27.558;2023-04-03T09:29:58;1.70;;;1.40;;
78838;SDS011;68405;47.190;27.558;2023-04-03T09:32:31;2.60;;;1.40;;
78838;SDS011;68405;47.190;27.558;2023-04-03T09:35:06;2.10;;;1.50;;
78838;SDS011;68405;47.190;27.558;2023-04-03T09:37:49;1.60;;;1.40;;
78838;SDS011;68405;47.190;27.558;2023-04-03T09:40:30;1.50;;;1.20;;
78838;SDS011;68405;47.190;27.558;2023-04-03T09:43:29;3.00;;;1.20;;
78838;SDS011;68405;47.190;27.558;2023-04-03T09:46:23;2.10;;;1.10;;
78838;SDS011;68405;47.190;27.558;2023-04-03T09:48:59;2.30;;;1.00;;
78838;SDS011;68405;47.190;27.558;2023-04-03T09:51:32;2.40;;;1.00;;
78838;SDS011;68405;47.190;27.558;2023-04-03T09:54:23;2.00;;;1.70;;
78838;SDS011;68405;47.190;27.558;2023-04-03T09:57:10;2.50;;;1.10;;
78838;SDS011;68405;47.190;27.558;2023-04-03T09:59:45;1.20;;;1.00;;
78838;SDS011;68405;47.190;27.558;2023-04-03T10:02:32;1.50;;;1.20;;
78838;SDS011;68405;47.190;27.558;2023-04-03T10:05:25;1.20;;;1.10;;
78838;SDS011;68405;47.190;27.558;2023-04-03T10:08:17;3.40;;;0.70;;
78838;SDS011;68405;47.190;27.558;2023-04-03T10:11:11;1.90;;;1.00;;
78838;SDS011;68405;47.190;27.558;2023-04-03T10:13:52;0.90;;;0.90;;
78838;SDS011;68405;47.190;27.558;2023-04-03T10:16:28;1.00;;;0.80;;
78838;SDS011;68405;47.190;27.558;2023-04-03T10:22:04;1.20;;;1.10;;
78838;SDS011;68405;47.190;27.558;2023-04-03T10:24:50;2.90;;;0.90;;
78838;SDS011;68405;47.190;27.558;2023-04-03T10:27:31;1.10;;;0.80;;
78838;SDS011;68405;47.190;27.558;2023-04-03T10:30:17;2.10;;;0.90;;
78838;SDS011;68405;47.190;27.558;2023-04-03T10:33:05;1.00;;;0.80;;
78838;SDS011;68405;47.190;27.558;2023-04-03T10:35:50;0.90;;;0.80;;
78838;SDS011;68405;47.190;27.558;2023-04-03T10:38:33;1.60;;;0.80;;
78838;SDS011;68405;47.190;27.558;2023-04-03T10:41:20;0.80;;;0.70;;
78838;SDS011;68405;47.190;27.558;2023-04-03T10:44:03;1.10;;;1.00;;
78838;SDS011;68405;47.190;27.558;2023-04-03T10:49:25;0.70;;;0.60;;
78838;SDS011;68405;47.190;27.558;2023-04-03T10:52:09;1.00;;;0.90;;
78838;SDS011;68405;47.190;27.558;2023-04-03T10:54:53;1.20;;;0.80;;
78838;SDS011;68405;47.190;27.558;2023-04-03T10:57:32;1.50;;;0.70;;
78838;SDS011;68405;47.190;27.558;2023-04-03T11:00:05;1.80;;;0.80;;
78838;SDS011;68405;47.190;27.558;2023-04-03T11:02:48;1.10;;;0.90;;
78838;SDS011;68405;47.190;27.558;2023-04-03T11:05:28;0.90;;;0.70;;
78838;SDS011;68405;47.190;27.558;2023-04-03T11:08:07;1.70;;;0.80;;
78838;SDS011;68405;47.190;27.558;2023-04-03T11:10:50;2.10;;;0.80;;
78838;SDS011;68405;47.190;27.558;2023-04-03T11:13:26;2.10;;;0.80;;
78838;SDS011;68405;47.190;27.558;2023-04-03T11:16:04;3.30;;;1.10;;
78838;SDS011;68405;47.190;27.558;2023-04-03T11:18:37;1.00;;;0.80;;
78838;SDS011;68405;47.190;27.558;2023-04-03T11:21:15;1.90;;;1.10;;
78838;SDS011;68405;47.190;27.558;2023-04-03T11:23:53;0.80;;;0.80;;
78838;SDS011;68405;47.190;27.558;2023-04-03T11:26:29;1.10;;;0.90;;
78838;SDS011;68405;47.190;27.558;2023-04-03T11:29:07;1.00;;;0.70;;
78838;SDS011;68405;47.190;27.558;2023-04-03T11:31:48;1.40;;;0.90;;
78838;SDS011;68405;47.190;27.558;2023-04-03T11:34:36;2.30;;;0.80;;
78838;SDS011;68405;47.190;27.558;2023-04-03T11:37:15;1.50;;;0.90;;
78838;SDS011;68405;47.190;27.558;2023-04-03T11:39:54;2.10;;;1.40;;
78838;SDS011;68405;47.190;27.558;2023-04-03T11:42:32;3.20;;;2.00;;
78838;SDS011;68405;47.190;27.558;2023-04-03T11:45:27;3.60;;;2.30;;
78838;SDS011;68405;47.190;27.558;2023-04-03T11:48:05;5.40;;;2.40;;
78838;SDS011;68405;47.190;27.558;2023-04-03T11:51:00;2.70;;;2.20;;
78838;SDS011;68405;47.190;27.558;2023-04-03T11:53:53;2.80;;;2.20;;
78838;SDS011;68405;47.190;27.558;2023-04-03T11:56:45;2.60;;;2.00;;
78838;SDS011;68405;47.190;27.558;2023-04-03T11:59:21;4.60;;;1.90;;
78838;SDS011;68405;47.190;27.558;2023-04-03T12:01:56;2.40;;;1.70;;
78838;SDS011;68405;47.190;27.558;2023-04-03T12:04:28;3.00;;;2.40;;
78838;SDS011;68405;47.190;27.558;2023-04-03T12:07:11;3.10;;;2.00;;
78838;SDS011;68405;47.190;27.558;2023-04-03T12:12:59;2.60;;;2.10;;
78838;SDS011;68405;47.190;27.558;2023-04-03T12:15:49;3.40;;;2.60;;
78838;SDS011;68405;47.190;27.558;2023-04-03T12:24:39;3.00;;;2.50;;
78838;SDS011;68405;47.190;27.558;2023-04-03T12:27:22;2.80;;;2.20;;
78838;SDS011;68405;47.190;27.558;2023-04-03T12:29:58;2.90;;;2.00;;
78838;SDS011;68405;47.190;27.558;2023-04-03T12:32:51;3.10;;;2.80;;
78838;SDS011;68405;47.190;27.558;2023-04-03T12:35:43;3.40;;;2.10;;
78838;SDS011;68405;47.190;27.558;2023-04-03T12:38:36;3.10;;;2.50;;
78838;SDS011;68405;47.190;27.558;2023-04-03T12:41:25;2.80;;;2.40;;
78838;SDS011;68405;47.190;27.558;2023-04-03T12:47:14;5.10;;;3.00;;
78838;SDS011;68405;47.190;27.558;2023-04-03T12:49:57;2.80;;;2.30;;
78838;SDS011;68405;47.190;27.558;2023-04-03T12:52:34;5.10;;;2.20;;
78838;SDS011;68405;47.190;27.558;2023-04-03T12:55:18;2.60;;;2.20;;
78838;SDS011;68405;47.190;27.558;2023-04-03T12:57:51;2.80;;;2.00;;
78838;SDS011;68405;47.190;27.558;2023-04-03T13:00:25;1.70;;;1.40;;
78838;SDS011;68405;47.190;27.558;2023-04-03T13:03:02;1.80;;;1.60;;
78838;SDS011;68405;47.190;27.558;2023-04-03T13:05:36;1.30;;;1.20;;
78838;SDS011;68405;47.190;27.558;2023-04-03T13:08:10;6.00;;;1.60;;
78838;SDS011;68405;47.190;27.558;2023-04-03T13:10:45;2.30;;;1.50;;
78838;SDS011;68405;47.190;27.558;2023-04-03T13:13:20;2.00;;;1.80;;
78838;SDS011;68405;47.190;27.558;2023-04-03T13:15:54;2.00;;;1.70;;
78838;SDS011;68405;47.190;27.558;2023-04-03T13:18:28;2.90;;;1.90;;
78838;SDS011;68405;47.190;27.558;2023-04-03T13:21:03;2.10;;;1.90;;
78838;SDS011;68405;47.190;27.558;2023-04-03T13:23:38;2.00;;;1.60;;
78838;SDS011;68405;47.190;27.558;2023-04-03T13:26:12;1.60;;;1.50;;
78838;SDS011;68405;47.190;27.558;2023-04-03T13:28:45;1.60;;;1.30;;
78838;SDS011;68405;47.190;27.558;2023-04-03T13:31:22;1.50;;;1.10;;
78838;SDS011;68405;47.190;27.558;2023-04-03T13:34:01;2.00;;;1.10;;
78838;SDS011;68405;47.190;27.558;2023-04-03T13:36:38;1.80;;;1.20;;
78838;SDS011;68405;47.190;27.558;2023-04-03T13:39:22;1.40;;;1.00;;
78838;SDS011;68405;47.190;27.558;2023-04-03T13:41:56;1.30;;;1.20;;
78838;SDS011;68405;47.190;27.558;2023-04-03T13:44:33;1.70;;;1.10;;
78838;SDS011;68405;47.190;27.558;2023-04-03T13:47:18;1.50;;;1.00;;
78838;SDS011;68405;47.190;27.558;2023-04-03T13:50:01;1.30;;;1.10;;
78838;SDS011;68405;47.190;27.558;2023-04-03T13:52:43;1.30;;;1.00;;
78838;SDS011;68405;47.190;27.558;2023-04-03T13:55:22;1.10;;;0.90;;
78838;SDS011;68405;47.190;27.558;2023-04-03T13:57:57;1.50;;;1.00;;
78838;SDS011;68405;47.190;27.558;2023-04-03T14:00:32;2.90;;;1.40;;
78838;SDS011;68405;47.190;27.558;2023-04-03T14:03:18;4.90;;;1.00;;
78838;SDS011;68405;47.190;27.558;2023-04-03T14:05:53;1.70;;;1.30;;
78838;SDS011;68405;47.190;27.558;2023-04-03T14:08:25;1.70;;;1.30;;
78838;SDS011;68405;47.190;27.558;2023-04-03T14:10:57;1.90;;;1.20;;
78838;SDS011;68405;47.190;27.558;2023-04-03T14:13:30;1.80;;;1.20;;
78838;SDS011;68405;47.190;27.558;2023-04-03T14:16:03;1.60;;;1.30;;
78838;SDS011;68405;47.190;27.558;2023-04-03T14:18:35;2.70;;;1.30;;
78838;SDS011;68405;47.190;27.558;2023-04-03T14:21:08;1.90;;;1.30;;
78838;SDS011;68405;47.190;27.558;2023-04-03T14:23:42;1.20;;;1.10;;
78838;SDS011;68405;47.190;27.558;2023-04-03T14:26:16;2.30;;;1.70;;
78838;SDS011;68405;47.190;27.558;2023-04-03T14:28:50;1.90;;;1.40;;
78838;SDS011;68405;47.190;27.558;2023-04-03T14:31:24;1.30;;;1.10;;
78838;SDS011;68405;47.190;27.558;2023-04-03T14:33:56;1.30;;;1.20;;
78838;SDS011;68405;47.190;27.558;2023-04-03T14:36:28;1.50;;;1.20;;
78838;SDS011;68405;47.190;27.558;2023-04-03T14:39:02;1.70;;;1.20;;
78838;SDS011;68405;47.190;27.558;2023-04-03T14:41:35;2.10;;;1.40;;
78838;SDS011;68405;47.190;27.558;2023-04-03T14:44:08;1.90;;;1.20;;
78838;SDS011;68405;47.190;27.558;2023-04-03T14:46:43;2.00;;;1.80;;
78838;SDS011;68405;47.190;27.558;2023-04-03T14:49:18;2.60;;;1.60;;
78838;SDS011;68405;47.190;27.558;2023-04-03T14:51:52;2.10;;;1.60;;
78838;SDS011;68405;47.190;27.558;2023-04-03T14:54:25;1.30;;;1.10;;
78838;SDS011;68405;47.190;27.558;2023-04-03T14:56:58;3.40;;;1.90;;
78838;SDS011;68405;47.190;27.558;2023-04-03T14:59:31;2.50;;;1.50;;
78838;SDS011;68405;47.190;27.558;2023-04-03T15:02:05;1.80;;;1.20;;
78838;SDS011;68405;47.190;27.558;2023-04-03T15:04:54;3.20;;;1.50;;
78838;SDS011;68405;47.190;27.558;2023-04-03T15:07:27;2.10;;;1.70;;
78838;SDS011;68405;47.190;27.558;2023-04-03T15:10:03;2.50;;;1.40;;
78838;SDS011;68405;47.190;27.558;2023-04-03T15:12:47;2.40;;;1.40;;
78838;SDS011;68405;47.190;27.558;2023-04-03T15:15:21;1.20;;;1.10;;
78838;SDS011;68405;47.190;27.558;2023-04-03T15:17:55;1.70;;;1.30;;
78838;SDS011;68405;47.190;27.558;2023-04-03T15:20:27;1.50;;;1.00;;
78838;SDS011;68405;47.190;27.558;2023-04-03T15:23:01;1.90;;;1.40;;
78838;SDS011;68405;47.190;27.558;2023-04-03T15:25:34;1.90;;;1.30;;
78838;SDS011;68405;47.190;27.558;2023-04-03T15:28:08;2.00;;;1.70;;
78838;SDS011;68405;47.190;27.558;2023-04-03T15:30:45;1.40;;;1.10;;
78838;SDS011;68405;47.190;27.558;2023-04-03T15:33:17;1.50;;;1.10;;
78838;SDS011;68405;47.190;27.558;2023-04-03T15:35:50;1.80;;;1.10;;
78838;SDS011;68405;47.190;27.558;2023-04-03T15:38:21;1.30;;;1.20;;